Time;durP1;ratioP1;P1;durP2;ratioP2;P2;SDS_P1;SDS_P2;PMS_P1;PMS_P2;Temp;Humidity;BMP_temperature;BMP_pressure;BME280_temperature;BME280_humidity;BME280_pressure;Samples;Min_cycle;Max_cycle;Signal;HPM_P1;HPM_P2
2024/01/25 00:00:56;;;;;;;;;;;;;;;;;;4989362;28;20124;-85
2024/01/25 00:03:21;;;;;;;17.15;2.95;;;;;;;;;;4991031;28;20004;-84
2024/01/25 00:05:47;;;;;;;15.90;3.42;;;;;;;;;;4989917;28;20046;-85
2024/01/25 00:08:12;;;;;;;16.35;2.95;;;;;;;;;;4989999;28;20113;-84
2024/01/25 00:10:38;;;;;;;18.90;3.50;;;;;;;;;;4973999;28;20038;-85
2024/01/25 00:13:03;;;;;;;16.92;2.97;;;;;;;;;;4989675;28;20126;-85
2024/01/25 00:15:29;;;;;;;17.58;3.17;;;;;;;;;;4991062;28;20474;-84
2024/01/25 00:17:54;;;;;;;14.40;3.20;;;;;;;;;;4988907;28;20062;-85
2024/01/25 00:20:20;;;;;;;19.58;3.45;;;;;;;;;;4983812;28;20044;-85
2024/01/25 00:22:45;;;;;;;19.77;3.35;;;;;;;;;;4997106;28;20368;-83
2024/01/25 00:25:10;;;;;;;22.30;3.78;;;;;;;;;;4990271;28;20030;-85
2024/01/25 00:27:36;;;;;;;16.30;2.67;;;;;;;;;;4989932;28;20068;-85
2024/01/25 00:30:01;;;;;;;15.55;2.60;;;;;;;;;;4974297;28;20104;-85
2024/01/25 00:32:27;;;;;;;17.55;3.42;;;;;;;;;;4992712;28;20057;-83
2024/01/25 00:34:52;;;;;;;20.10;3.28;;;;;;;;;;4990127;28;20498;-85
2024/01/25 00:37:21;;;;;;;20.38;3.65;;;;;;;;;;4972445;28;20041;-84
2024/01/25 00:39:46;;;;;;;22.33;2.90;;;;;;;;;;4989349;28;20050;-85
2024/01/25 00:42:14;;;;;;;16.77;2.90;;;;;;;;;;4967661;28;20574;-83
2024/01/25 00:44:42;;;;;;;15.73;3.10;;;;;;;;;;4991829;28;20073;-86
2024/01/25 00:47:07;;;;;;;;;;;;;;;;;;4988863;28;20580;-84
2024/01/25 00:49:33;;;;;;;21.08;4.97;;;;;;;;;;4998870;28;19914;-84
2024/01/25 00:52:00;;;;;;;21.33;3.10;;;;;;;;;;4990554;28;20030;-83
2024/01/25 00:54:25;;;;;;;18.60;2.83;;;;;;;;;;4979961;28;20035;-84
2024/01/25 00:56:52;;;;;;;15.13;2.70;;;;;;;;;;4976215;28;20046;-84
2024/01/25 00:59:18;;;;;;;15.73;3.03;;;;;;;;;;4991368;28;20061;-85
2024/01/25 01:01:46;;;;;;;20.42;3.00;;;;;;;;;;4991227;28;20692;-81
2024/01/25 01:04:12;;;;;;;;;;;;;;;;;;4996093;28;20034;-86
2024/01/25 01:06:37;;;;;;;18.83;3.58;;;;;;;;;;4973627;28;20380;-83
2024/01/25 01:09:03;;;;;;;17.48;3.00;;;;;;;;;;4990424;28;20042;-85
2024/01/25 01:11:29;;;;;;;17.23;3.17;;;;;;;;;;4989282;28;20085;-84
2024/01/25 01:13:55;;;;;;;15.68;2.80;;;;;;;;;;4990541;28;20072;-85
2024/01/25 01:16:20;;;;;;;15.75;2.72;;;;;;;;;;4988214;28;20113;-83
2024/01/25 01:18:46;;;;;;;14.93;2.63;;;;;;;;;;4990014;28;20336;-84
2024/01/25 01:21:11;;;;;;;14.10;2.70;;;;;;;;;;4990121;28;21102;-83
2024/01/25 01:23:36;;;;;;;14.32;2.45;;;;;;;;;;4989822;28;20469;-84
2024/01/25 01:26:04;;;;;;;17.95;2.80;;;;;;;;;;4990228;28;20041;-84
2024/01/25 01:28:29;;;;;;;16.63;2.67;;;;;;;;;;4986352;28;20129;-83
2024/01/25 01:30:54;;;;;;;15.63;2.60;;;;;;;;;;4970383;28;20149;-83
2024/01/25 01:33:20;;;;;;;17.30;3.30;;;;;;;;;;4990366;28;20045;-84
2024/01/25 01:35:46;;;;;;;14.68;2.72;;;;;;;;;;4987332;28;20486;-83
2024/01/25 01:38:11;;;;;;;12.07;2.72;;;;;;;;;;4970004;28;20038;-84
2024/01/25 01:40:37;;;;;;;18.48;2.95;;;;;;;;;;4986037;28;20093;-86
2024/01/25 01:43:02;;;;;;;13.75;2.40;;;;;;;;;;4985217;28;20057;-84
2024/01/25 01:45:28;;;;;;;15.15;3.45;;;;;;;;;;4991204;28;20132;-84
2024/01/25 01:47:55;;;;;;;15.40;2.80;;;;;;;;;;4991519;28;20997;-83
2024/01/25 01:50:20;;;;;;;16.10;3.40;;;;;;;;;;4971678;28;20049;-85
2024/01/25 01:52:46;;;;;;;12.73;2.72;;;;;;;;;;4970483;28;20038;-84
2024/01/25 01:55:12;;;;;;;13.98;2.72;;;;;;;;;;4975065;28;20038;-82
2024/01/25 01:57:38;;;;;;;14.90;2.40;;;;;;;;;;4988368;28;20053;-84
2024/01/25 02:00:08;;;;;;;21.38;3.10;;;;;;;;;;4977010;28;20041;-85
2024/01/25 02:02:33;;;;;;;16.45;2.50;;;;;;;;;;4955032;28;20067;-85
2024/01/25 02:04:59;;;;;;;18.25;2.90;;;;;;;;;;4960887;28;20030;-85
2024/01/25 02:07:24;;;;;;;12.25;2.40;;;;;;;;;;4967554;28;20116;-84
2024/01/25 02:09:49;;;;;;;19.08;2.88;;;;;;;;;;4978728;28;20045;-84
2024/01/25 02:12:18;;;;;;;12.70;2.53;;;;;;;;;;4989251;28;20041;-85
2024/01/25 02:14:43;;;;;;;16.25;2.78;;;;;;;;;;4975246;28;20393;-84
2024/01/25 02:17:09;;;;;;;13.82;2.70;;;;;;;;;;5001383;28;20053;-84
2024/01/25 02:19:35;;;;;;;17.77;2.50;;;;;;;;;;4983578;28;20046;-85
2024/01/25 02:22:01;;;;;;;20.20;3.43;;;;;;;;;;4978007;28;20474;-83
2024/01/25 02:24:26;;;;;;;16.33;2.65;;;;;;;;;;4976481;28;20058;-84
2024/01/25 02:26:52;;;;;;;14.07;2.88;;;;;;;;;;4987973;28;20049;-82
2024/01/25 02:29:17;;;;;;;15.98;2.92;;;;;;;;;;4992062;28;20130;-84
2024/01/25 02:31:42;;;;;;;14.85;3.03;;;;;;;;;;4963331;28;20130;-85
2024/01/25 02:34:08;;;;;;;14.80;2.80;;;;;;;;;;4981840;28;20058;-84
2024/01/25 02:36:33;;;;;;;19.45;3.08;;;;;;;;;;4953813;28;20053;-84
2024/01/25 02:38:59;;;;;;;15.93;3.00;;;;;;;;;;4987341;28;20057;-82
2024/01/25 02:41:25;;;;;;;15.05;3.22;;;;;;;;;;4990383;28;20057;-85
2024/01/25 02:43:50;;;;;;;15.80;2.58;;;;;;;;;;4988979;28;20076;-86
2024/01/25 02:46:15;;;;;;;16.75;3.22;;;;;;;;;;4988221;28;20042;-84
2024/01/25 02:48:41;;;;;;;20.00;3.15;;;;;;;;;;4991374;28;20046;-84
2024/01/25 02:51:06;;;;;;;18.35;2.90;;;;;;;;;;4974643;28;20066;-84
2024/01/25 02:53:31;;;;;;;15.77;3.08;;;;;;;;;;4994363;28;20042;-83
2024/01/25 02:55:57;;;;;;;17.80;2.72;;;;;;;;;;4992395;28;20108;-84
2024/01/25 02:58:22;;;;;;;17.80;2.78;;;;;;;;;;4975445;28;20034;-85
2024/01/25 03:00:48;;;;;;;17.80;3.00;;;;;;;;;;4992315;28;20050;-84
2024/01/25 03:03:13;;;;;;;18.58;3.05;;;;;;;;;;4991530;28;20042;-83
2024/01/25 03:05:38;;;;;;;14.23;3.33;;;;;;;;;;4991819;28;20049;-86
2024/01/25 03:08:04;;;;;;;14.88;3.03;;;;;;;;;;4991688;28;20038;-85
2024/01/25 03:10:30;;;;;;;19.95;3.38;;;;;;;;;;4992067;28;20034;-84
2024/01/25 03:12:55;;;;;;;15.60;3.03;;;;;;;;;;4974391;28;20414;-86
2024/01/25 03:15:21;;;;;;;16.98;3.15;;;;;;;;;;4983420;28;20533;-84
2024/01/25 03:17:46;;;;;;;16.10;3.22;;;;;;;;;;4991138;28;20038;-82
2024/01/25 03:20:11;;;;;;;15.93;3.47;;;;;;;;;;4978316;28;20035;-84
2024/01/25 03:22:37;;;;;;;15.52;2.90;;;;;;;;;;4988365;28;20041;-84
2024/01/25 03:25:03;;;;;;;18.10;3.10;;;;;;;;;;4990036;28;20080;-85
2024/01/25 03:27:28;;;;;;;21.25;3.38;;;;;;;;;;4990499;28;20040;-85
2024/01/25 03:29:54;;;;;;;13.93;2.10;;;;;;;;;;4992983;28;20129;-86
2024/01/25 03:32:19;;;;;;;15.93;3.20;;;;;;;;;;4988717;28;20125;-85
2024/01/25 03:34:44;;;;;;;18.88;3.55;;;;;;;;;;4988108;28;20056;-82
2024/01/25 03:37:11;;;;;;;18.15;2.70;;;;;;;;;;4987387;28;20061;-85
2024/01/25 03:39:36;;;;;;;15.40;2.40;;;;;;;;;;4988881;28;20053;-85
2024/01/25 03:42:01;;;;;;;17.45;3.05;;;;;;;;;;4991377;28;20061;-84
2024/01/25 03:44:27;;;;;;;17.17;2.92;;;;;;;;;;4988476;28;20490;-83
2024/01/25 03:46:52;;;;;;;16.38;2.80;;;;;;;;;;4989599;28;20030;-82
2024/01/25 03:49:18;;;;;;;16.25;2.55;;;;;;;;;;4988764;28;20038;-83
2024/01/25 03:51:45;;;;;;;17.25;3.03;;;;;;;;;;4987102;28;20034;-85
2024/01/25 03:54:10;;;;;;;18.40;2.95;;;;;;;;;;4973668;28;20461;-85
2024/01/25 03:56:37;;;;;;;17.05;3.33;;;;;;;;;;4988409;28;20121;-83
2024/01/25 03:59:03;;;;;;;19.10;2.83;;;;;;;;;;4986081;28;20126;-83
2024/01/25 04:01:28;;;;;;;18.92;3.53;;;;;;;;;;4987045;28;20553;-83
2024/01/25 04:03:54;;;;;;;18.30;3.30;;;;;;;;;;4989189;28;20061;-83
2024/01/25 04:06:22;;;;;;;19.85;3.42;;;;;;;;;;4988626;28;20122;-84
2024/01/25 04:08:47;;;;;;;18.92;3.47;;;;;;;;;;4989803;28;20046;-84
2024/01/25 04:11:15;;;;;;;16.38;2.90;;;;;;;;;;4990023;28;20600;-85
2024/01/25 04:13:43;;;;;;;17.30;3.00;;;;;;;;;;4989960;28;20054;-83
2024/01/25 04:16:09;;;;;;;20.80;2.60;;;;;;;;;;4988610;28;20042;-84
2024/01/25 04:18:34;;;;;;;11.13;2.30;;;;;;;;;;4989042;28;20095;-84
2024/01/25 04:21:00;;;;;;;18.23;2.72;;;;;;;;;;4962613;28;20042;-84
2024/01/25 04:23:25;;;;;;;16.42;2.95;;;;;;;;;;4988237;28;20502;-85
2024/01/25 04:25:51;;;;;;;16.95;3.58;;;;;;;;;;4989067;28;20040;-84
2024/01/25 04:28:16;;;;;;;15.57;3.20;;;;;;;;;;4972523;28;20117;-84
2024/01/25 04:30:42;;;;;;;16.38;3.22;;;;;;;;;;4992183;28;20133;-83
2024/01/25 04:33:07;;;;;;;15.23;2.90;;;;;;;;;;4972138;28;20038;-85
2024/01/25 04:35:33;;;;;;;19.85;2.83;;;;;;;;;;4987251;28;20088;-83
2024/01/25 04:37:58;;;;;;;18.40;3.08;;;;;;;;;;4988538;28;20038;-83
2024/01/25 04:40:24;;;;;;;16.23;2.67;;;;;;;;;;4987545;28;20042;-83
2024/01/25 04:42:49;;;;;;;15.00;2.83;;;;;;;;;;4971949;28;20042;-84
2024/01/25 04:45:15;;;;;;;18.83;3.67;;;;;;;;;;4984909;28;20034;-83
2024/01/25 04:47:40;;;;;;;17.83;3.50;;;;;;;;;;4988360;28;20042;-83
2024/01/25 04:50:06;;;;;;;19.38;3.17;;;;;;;;;;4988082;28;20117;-83
2024/01/25 04:52:31;;;;;;;13.73;3.13;;;;;;;;;;4969872;28;20061;-84
2024/01/25 04:54:56;;;;;;;15.45;3.45;;;;;;;;;;4990473;28;20061;-83
2024/01/25 04:57:22;;;;;;;17.23;3.40;;;;;;;;;;4986303;28;20030;-83
2024/01/25 04:59:47;;;;;;;19.67;3.72;;;;;;;;;;4971875;28;20046;-83
2024/01/25 05:02:13;;;;;;;15.02;2.75;;;;;;;;;;4985996;28;20043;-79
2024/01/25 05:04:38;;;;;;;18.95;3.40;;;;;;;;;;4985151;28;20034;-80
2024/01/25 05:07:04;;;;;;;20.48;2.75;;;;;;;;;;4985730;28;20801;-78
2024/01/25 05:09:29;;;;;;;14.55;2.78;;;;;;;;;;4984267;28;20040;-79
2024/01/25 05:11:58;;;;;;;17.65;3.10;;;;;;;;;;4976849;28;20039;-80
2024/01/25 05:14:24;;;;;;;20.30;2.78;;;;;;;;;;4983464;28;20696;-78
2024/01/25 05:16:49;;;;;;;16.17;2.88;;;;;;;;;;4983697;28;20041;-80
2024/01/25 05:19:14;;;;;;;17.25;3.03;;;;;;;;;;4983774;28;20034;-78
2024/01/25 05:21:40;;;;;;;15.75;2.65;;;;;;;;;;4985179;28;20034;-78
2024/01/25 05:24:06;;;;;;;17.77;3.13;;;;;;;;;;4987146;28;20758;-79
2024/01/25 05:26:31;;;;;;;16.50;2.95;;;;;;;;;;4986354;28;20034;-82
2024/01/25 05:28:57;;;;;;;16.75;2.92;;;;;;;;;;4987455;28;20164;-84
2024/01/25 05:31:22;;;;;;;15.85;2.80;;;;;;;;;;4987283;28;20034;-85
2024/01/25 05:33:48;;;;;;;18.13;3.45;;;;;;;;;;4988098;28;20050;-87
2024/01/25 05:36:15;;;;;;;12.65;3.00;;;;;;;;;;4986837;28;20030;-86
2024/01/25 05:38:40;;;;;;;17.20;3.00;;;;;;;;;;4935869;28;20615;-86
2024/01/25 05:41:06;;;;;;;14.95;3.05;;;;;;;;;;4965135;28;20034;-87
2024/01/25 05:43:32;;;;;;;15.68;2.80;;;;;;;;;;4968262;28;20034;-87
2024/01/25 05:45:58;;;;;;;15.60;2.47;;;;;;;;;;5005591;28;20486;-87
2024/01/25 05:48:23;;;;;;;19.90;3.28;;;;;;;;;;4956055;28;20093;-87
2024/01/25 05:50:49;;;;;;;18.90;2.90;;;;;;;;;;4975304;28;20034;-87
2024/01/25 05:53:21;;;;;;;20.77;3.25;;;;;;;;;;4966025;28;20046;-87
2024/01/25 05:55:47;;;;;;;21.25;3.65;;;;;;;;;;4971222;28;20130;-87
2024/01/25 05:58:13;;;;;;;22.80;2.88;;;;;;;;;;4988721;28;20038;-86
2024/01/25 06:00:40;;;;;;;21.52;3.03;;;;;;;;;;4974254;28;20038;-87
2024/01/25 06:03:06;;;;;;;17.60;3.00;;;;;;;;;;4987598;28;20506;-86
2024/01/25 06:05:31;;;;;;;19.90;3.83;;;;;;;;;;4985375;28;20042;-86
2024/01/25 06:07:56;;;;;;;15.18;2.78;;;;;;;;;;4987958;28;20034;-87
2024/01/25 06:10:22;;;;;;;15.63;2.58;;;;;;;;;;4986880;28;20046;-86
2024/01/25 06:12:47;;;;;;;14.75;2.83;;;;;;;;;;4983479;28;20133;-86
2024/01/25 06:15:15;;;;;;;16.02;2.80;;;;;;;;;;4986100;28;20556;-87
2024/01/25 06:17:40;;;;;;;;;;;;;;;;;;4984239;28;20049;-87
2024/01/25 06:20:06;;;;;;;16.40;2.30;;;;;;;;;;4987073;28;19918;-86
2024/01/25 06:22:32;;;;;;;18.98;3.60;;;;;;;;;;4985739;28;20464;-86
2024/01/25 06:24:58;;;;;;;20.40;3.22;;;;;;;;;;4971134;28;20114;-86
2024/01/25 06:27:23;;;;;;;19.42;3.17;;;;;;;;;;4989504;28;20093;-88
2024/01/25 06:29:49;;;;;;;14.95;2.90;;;;;;;;;;4989229;28;20149;-84
2024/01/25 06:32:14;;;;;;;18.48;2.78;;;;;;;;;;4990479;28;20050;-84
2024/01/25 06:34:40;;;;;;;14.85;2.65;;;;;;;;;;4975394;28;20053;-85
2024/01/25 06:37:05;;;;;;;15.23;2.90;;;;;;;;;;4966698;28;20038;-86
2024/01/25 06:39:30;;;;;;;20.10;3.08;;;;;;;;;;4989625;28;20034;-83
2024/01/25 06:41:56;;;;;;;20.02;2.45;;;;;;;;;;4989977;28;20042;-82
2024/01/25 06:44:21;;;;;;;18.02;2.35;;;;;;;;;;4972618;28;20034;-82
2024/01/25 06:46:46;;;;;;;13.32;2.30;;;;;;;;;;4973454;28;20402;-83
2024/01/25 06:49:12;;;;;;;23.63;2.80;;;;;;;;;;4989258;28;20046;-83
2024/01/25 06:51:37;;;;;;;12.77;2.03;;;;;;;;;;4972264;28;20094;-86
2024/01/25 06:54:03;;;;;;;15.40;2.88;;;;;;;;;;4991999;28;20047;-82
2024/01/25 06:56:28;;;;;;;15.77;2.55;;;;;;;;;;4987402;28;20042;-85
2024/01/25 06:58:53;;;;;;;14.25;2.33;;;;;;;;;;4990826;28;20034;-83
2024/01/25 07:01:22;;;;;;;16.27;2.20;;;;;;;;;;4986213;28;20038;-84
2024/01/25 07:03:48;;;;;;;13.80;2.88;;;;;;;;;;4990563;28;20039;-85
2024/01/25 07:06:13;;;;;;;12.27;2.40;;;;;;;;;;4989956;28;20046;-84
2024/01/25 07:08:39;;;;;;;22.02;3.45;;;;;;;;;;4989610;28;20045;-84
2024/01/25 07:11:04;;;;;;;14.73;2.85;;;;;;;;;;4972466;28;20045;-86
2024/01/25 07:13:30;;;;;;;22.08;2.95;;;;;;;;;;4972238;28;20062;-84
2024/01/25 07:15:55;;;;;;;16.60;3.28;;;;;;;;;;4990874;28;20034;-84
2024/01/25 07:18:21;;;;;;;16.98;2.80;;;;;;;;;;4989733;28;20486;-84
2024/01/25 07:20:46;;;;;;;17.13;2.80;;;;;;;;;;4991274;28;20042;-83
2024/01/25 07:23:11;;;;;;;16.98;3.00;;;;;;;;;;4974647;28;20053;-84
2024/01/25 07:25:37;;;;;;;16.90;2.80;;;;;;;;;;4989212;28;20049;-84
2024/01/25 07:28:02;;;;;;;16.58;2.78;;;;;;;;;;4988809;28;20042;-83
2024/01/25 07:30:28;;;;;;;16.38;2.20;;;;;;;;;;4989984;28;20049;-83
2024/01/25 07:32:53;;;;;;;21.20;3.45;;;;;;;;;;4978781;28;20042;-83
2024/01/25 07:35:19;;;;;;;15.73;2.70;;;;;;;;;;4992422;28;20104;-83
2024/01/25 07:37:44;;;;;;;14.32;2.72;;;;;;;;;;4985531;28;20042;-83
2024/01/25 07:40:11;;;;;;;19.73;2.97;;;;;;;;;;4989269;28;20038;-83
2024/01/25 07:42:38;;;;;;;21.10;3.10;;;;;;;;;;4990510;28;20371;-84
2024/01/25 07:45:04;;;;;;;19.08;2.88;;;;;;;;;;4972540;28;20035;-83
2024/01/25 07:47:31;;;;;;;16.60;3.30;;;;;;;;;;4988190;28;20486;-83
2024/01/25 07:49:56;;;;;;;23.75;2.75;;;;;;;;;;4988841;28;20097;-84
2024/01/25 07:52:21;;;;;;;15.55;2.72;;;;;;;;;;4992790;28;20447;-86
2024/01/25 07:54:47;;;;;;;18.50;3.13;;;;;;;;;;4993885;28;20042;-82
2024/01/25 07:57:12;;;;;;;14.00;2.55;;;;;;;;;;4988759;28;20375;-83
2024/01/25 07:59:37;;;;;;;18.38;4.18;;;;;;;;;;4988276;28;20487;-84
2024/01/25 08:02:03;;;;;;;15.40;2.47;;;;;;;;;;4982532;28;20112;-85
2024/01/25 08:04:29;;;;;;;16.48;3.15;;;;;;;;;;4987330;28;20058;-83
2024/01/25 08:06:54;;;;;;;17.85;2.80;;;;;;;;;;4989919;28;20113;-85
2024/01/25 08:09:19;;;;;;;20.08;3.55;;;;;;;;;;4983457;28;20041;-84
2024/01/25 08:11:45;;;;;;;16.60;3.20;;;;;;;;;;4988253;28;20390;-83
2024/01/25 08:14:11;;;;;;;17.92;3.10;;;;;;;;;;4985934;28;20030;-85
2024/01/25 08:16:36;;;;;;;12.15;2.47;;;;;;;;;;4991397;28;20034;-85
2024/01/25 08:19:05;;;;;;;15.93;2.45;;;;;;;;;;4988536;28;20040;-84
2024/01/25 08:21:30;;;;;;;17.55;2.92;;;;;;;;;;4987807;28;20155;-85
2024/01/25 08:23:56;;;;;;;18.52;2.90;;;;;;;;;;4972150;28;20549;-84
2024/01/25 08:26:21;;;;;;;17.95;2.72;;;;;;;;;;4969535;28;20453;-84
2024/01/25 08:28:47;;;;;;;21.70;2.80;;;;;;;;;;4984198;28;20159;-84
2024/01/25 08:31:12;;;;;;;16.95;2.85;;;;;;;;;;4974430;28;20062;-84
2024/01/25 08:33:43;;;;;;;13.73;2.40;;;;;;;;;;4971840;28;20093;-85
2024/01/25 08:36:10;;;;;;;16.42;2.45;;;;;;;;;;5002697;28;20379;-85
2024/01/25 08:38:35;;;;;;;17.02;2.53;;;;;;;;;;5001348;28;20046;-85
2024/01/25 08:41:01;;;;;;;16.10;2.75;;;;;;;;;;4973648;28;20034;-84
2024/01/25 08:43:27;;;;;;;16.08;2.83;;;;;;;;;;4973557;28;20113;-84
2024/01/25 08:45:52;;;;;;;15.90;2.85;;;;;;;;;;4993180;28;20423;-85
2024/01/25 08:48:18;;;;;;;12.27;2.38;;;;;;;;;;4995891;28;20030;-85
2024/01/25 08:50:43;;;;;;;17.23;2.60;;;;;;;;;;4977494;28;20057;-84
2024/01/25 08:53:09;;;;;;;12.10;2.55;;;;;;;;;;4972405;28;20046;-84
2024/01/25 08:55:35;;;;;;;16.20;3.47;;;;;;;;;;4972472;28;21148;-84
2024/01/25 08:58:00;;;;;;;17.80;2.97;;;;;;;;;;4969785;28;20042;-85
2024/01/25 09:00:25;;;;;;;12.85;2.08;;;;;;;;;;4975238;28;20078;-84
2024/01/25 09:02:51;;;;;;;18.45;3.13;;;;;;;;;;5003583;28;20035;-84
2024/01/25 09:05:16;;;;;;;13.88;2.28;;;;;;;;;;4989075;28;20494;-84
2024/01/25 09:07:42;;;;;;;14.68;2.00;;;;;;;;;;4990188;28;20034;-83
2024/01/25 09:10:08;;;;;;;16.73;2.40;;;;;;;;;;4989041;28;20041;-84
2024/01/25 09:12:34;;;;;;;14.35;2.28;;;;;;;;;;4956668;28;20069;-84
2024/01/25 09:15:00;;;;;;;11.90;2.65;;;;;;;;;;5003794;28;20530;-82
2024/01/25 09:17:25;;;;;;;18.88;3.05;;;;;;;;;;4987789;28;20030;-83
2024/01/25 09:19:51;;;;;;;16.10;2.17;;;;;;;;;;4988578;28;20045;-84
2024/01/25 09:22:19;;;;;;;17.50;2.65;;;;;;;;;;4976560;28;20037;-83
2024/01/25 09:24:44;;;;;;;;;;;;;;;;;;4989900;28;20410;-83
2024/01/25 09:27:10;;;;;;;14.57;2.50;;;;;;;;;;5006353;28;19913;-82
2024/01/25 09:29:35;;;;;;;16.42;2.35;;;;;;;;;;4987040;28;20096;-83
2024/01/25 09:32:00;;;;;;;13.65;2.47;;;;;;;;;;4991642;28;20049;-83
2024/01/25 09:34:26;;;;;;;14.18;2.42;;;;;;;;;;4987783;28;20124;-82
2024/01/25 09:36:51;;;;;;;15.90;2.90;;;;;;;;;;4981204;28;20506;-83
2024/01/25 09:39:17;;;;;;;12.43;2.35;;;;;;;;;;4949352;28;20041;-81
2024/01/25 09:41:43;;;;;;;15.32;2.90;;;;;;;;;;4974786;28;20625;-82
2024/01/25 09:44:09;;;;;;;15.73;2.28;;;;;;;;;;4987187;28;20195;-82
2024/01/25 09:46:35;;;;;;;23.40;2.60;;;;;;;;;;4963353;28;20038;-81
2024/01/25 09:49:01;;;;;;;18.85;2.53;;;;;;;;;;4972186;28;20038;-82
2024/01/25 09:51:27;;;;;;;13.68;2.33;;;;;;;;;;4986348;28;20057;-83
2024/01/25 09:53:53;;;;;;;14.98;1.98;;;;;;;;;;4980580;28;20218;-82
2024/01/25 09:56:20;;;;;;;15.02;2.50;;;;;;;;;;5005942;28;20549;-83
2024/01/25 09:58:46;;;;;;;18.00;2.72;;;;;;;;;;5003995;28;20486;-81
2024/01/25 10:01:13;;;;;;;17.48;2.70;;;;;;;;;;4973335;28;20038;-83
2024/01/25 10:03:46;;;;;;;17.63;2.67;;;;;;;;;;4978731;28;20045;-84
2024/01/25 10:06:15;;;;;;;17.05;3.05;;;;;;;;;;4983929;28;20034;-82
2024/01/25 10:08:41;;;;;;;19.23;3.03;;;;;;;;;;5010185;28;20398;-83
2024/01/25 10:11:07;;;;;;;13.50;2.28;;;;;;;;;;4995461;28;20037;-85
2024/01/25 10:13:43;;;;;;;15.13;3.27;;;;;;;;;;5010337;28;20038;-85
2024/01/25 10:16:15;;;;;;;11.70;2.20;;;;;;;;;;5002093;28;20266;-84
2024/01/25 10:18:44;;;;;;;15.95;2.78;;;;;;;;;;4998457;28;20197;-84
2024/01/25 10:21:10;;;;;;;15.15;2.55;;;;;;;;;;4988024;28;20041;-82
2024/01/25 10:23:37;;;;;;;18.20;2.97;;;;;;;;;;4990990;28;20069;-82
2024/01/25 10:26:02;;;;;;;18.92;2.65;;;;;;;;;;4993755;28;20033;-83
2024/01/25 10:28:30;;;;;;;12.90;2.58;;;;;;;;;;4989580;28;20038;-83
2024/01/25 10:30:57;;;;;;;14.27;2.25;;;;;;;;;;4991654;28;20050;-83
2024/01/25 10:33:24;;;;;;;16.73;2.50;;;;;;;;;;4988841;28;20446;-83
2024/01/25 10:35:51;;;;;;;12.18;2.35;;;;;;;;;;4989475;28;20042;-81
2024/01/25 10:38:20;;;;;;;12.35;2.10;;;;;;;;;;4974052;28;20387;-82
2024/01/25 10:40:46;;;;;;;12.75;2.55;;;;;;;;;;4989133;28;20409;-83
2024/01/25 10:43:12;;;;;;;16.20;2.70;;;;;;;;;;4989834;28;20100;-84
2024/01/25 10:45:37;;;;;;;14.95;2.30;;;;;;;;;;4988658;28;20030;-84
2024/01/25 10:48:04;;;;;;;17.10;2.63;;;;;;;;;;4992740;28;20045;-84
2024/01/25 10:50:29;;;;;;;16.95;2.75;;;;;;;;;;4990420;28;20084;-83
2024/01/25 10:52:55;;;;;;;14.27;2.17;;;;;;;;;;4984688;28;20042;-82
2024/01/25 10:55:21;;;;;;;12.68;2.20;;;;;;;;;;4991743;28;20348;-81
2024/01/25 10:57:47;;;;;;;14.95;2.50;;;;;;;;;;4991368;28;20100;-83
2024/01/25 11:00:15;;;;;;;13.73;2.78;;;;;;;;;;4993702;28;20486;-82
2024/01/25 11:02:41;;;;;;;13.35;2.60;;;;;;;;;;4983295;28;20169;-82
2024/01/25 11:05:08;;;;;;;17.58;2.80;;;;;;;;;;4986092;28;20034;-81
2024/01/25 11:07:47;;;;;;;13.32;2.40;;;;;;;;;;5007247;28;20498;-83
2024/01/25 11:10:24;;;;;;;14.95;3.03;;;;;;;;;;4978130;28;20033;-82
2024/01/25 11:12:57;;;;;;;18.17;2.80;;;;;;;;;;4971970;28;20100;-82
2024/01/25 11:15:24;;;;;;;15.32;2.50;;;;;;;;;;4990249;28;20037;-83
2024/01/25 11:17:53;;;;;;;12.10;2.53;;;;;;;;;;4978178;28;20038;-81
2024/01/25 11:20:26;;;;;;;10.70;2.70;;;;;;;;;;4989661;28;20145;-85
2024/01/25 11:22:59;;;;;;;15.23;2.40;;;;;;;;;;4995618;28;20034;-83
2024/01/25 11:25:28;;;;;;;12.63;2.25;;;;;;;;;;4972800;28;20553;-82
2024/01/25 11:27:54;;;;;;;13.25;2.65;;;;;;;;;;5005823;28;20429;-82
2024/01/25 11:30:20;;;;;;;13.32;2.20;;;;;;;;;;5003950;28;20042;-82
2024/01/25 11:32:47;;;;;;;11.18;1.98;;;;;;;;;;4974169;28;20458;-82
2024/01/25 11:35:16;;;;;;;13.52;2.28;;;;;;;;;;4988359;28;20066;-82
2024/01/25 11:37:43;;;;;;;9.63;1.75;;;;;;;;;;4972712;28;20058;-82
2024/01/25 11:40:12;;;;;;;12.93;2.43;;;;;;;;;;4986684;28;20038;-83
2024/01/25 11:42:39;;;;;;;11.00;2.17;;;;;;;;;;4987163;28;20038;-83
2024/01/25 11:45:06;;;;;;;17.30;2.30;;;;;;;;;;4987681;28;20461;-84
2024/01/25 11:47:31;;;;;;;16.17;2.47;;;;;;;;;;4971359;28;20055;-82
2024/01/25 11:49:56;;;;;;;13.75;2.08;;;;;;;;;;4988628;28;20064;-84
2024/01/25 11:52:22;;;;;;;11.35;2.17;;;;;;;;;;4988092;28;20052;-84
2024/01/25 11:54:47;;;;;;;13.55;2.35;;;;;;;;;;4988076;28;20045;-86
2024/01/25 11:57:13;;;;;;;16.65;2.30;;;;;;;;;;4988302;28;20040;-86
2024/01/25 11:59:38;;;;;;;13.95;2.08;;;;;;;;;;4989989;28;20101;-83
2024/01/25 12:02:04;;;;;;;12.32;2.55;;;;;;;;;;4964292;28;20042;-84
2024/01/25 12:04:29;;;;;;;18.10;2.72;;;;;;;;;;4976806;28;20101;-83
2024/01/25 12:06:55;;;;;;;10.20;2.35;;;;;;;;;;4989097;28;20037;-86
2024/01/25 12:09:20;;;;;;;11.52;1.98;;;;;;;;;;4961349;28;20037;-86
2024/01/25 12:11:49;;;;;;;11.25;2.33;;;;;;;;;;5008071;28;20038;-84
2024/01/25 12:14:16;;;;;;;10.60;2.10;;;;;;;;;;4993553;28;20532;-84
2024/01/25 12:16:42;;;;;;;16.48;2.58;;;;;;;;;;4972134;28;20486;-84
2024/01/25 12:19:07;;;;;;;12.88;2.42;;;;;;;;;;4973612;28;20045;-84
2024/01/25 12:21:35;;;;;;;15.20;1.90;;;;;;;;;;4988187;28;20191;-84
2024/01/25 12:24:00;;;;;;;12.88;2.38;;;;;;;;;;4987827;28;20042;-83
2024/01/25 12:26:25;;;;;;;12.43;2.10;;;;;;;;;;4987519;28;20030;-83
2024/01/25 12:28:51;;;;;;;9.32;1.77;;;;;;;;;;4975928;28;20050;-84
2024/01/25 12:31:17;;;;;;;13.70;2.13;;;;;;;;;;5005571;28;20779;-83
2024/01/25 12:33:43;;;;;;;10.18;1.83;;;;;;;;;;5004420;28;20045;-83
2024/01/25 12:36:09;;;;;;;17.25;2.50;;;;;;;;;;5005920;28;20038;-84
2024/01/25 12:38:35;;;;;;;12.15;2.03;;;;;;;;;;4972727;28;20446;-83
2024/01/25 12:41:01;;;;;;;11.75;2.00;;;;;;;;;;4988630;28;20061;-84
2024/01/25 12:43:26;;;;;;;11.98;2.33;;;;;;;;;;4988224;28;20052;-83
2024/01/25 12:45:52;;;;;;;13.93;2.53;;;;;;;;;;4988832;28;20042;-84
2024/01/25 12:48:17;;;;;;;15.30;1.83;;;;;;;;;;4988808;28;20048;-83
2024/01/25 12:50:43;;;;;;;19.92;3.03;;;;;;;;;;4988698;28;20074;-83
2024/01/25 12:53:10;;;;;;;13.02;3.22;;;;;;;;;;4981598;28;20034;-81
2024/01/25 12:55:36;;;;;;;60.85;5.85;;;;;;;;;;4971001;28;22040;-82
2024/01/25 12:58:02;;;;;;;182.68;16.77;;;;;;;;;;4953949;28;20387;-83
2024/01/25 13:00:28;;;;;;;82.70;8.73;;;;;;;;;;4990023;28;20042;-84
2024/01/25 13:02:54;;;;;;;124.47;9.90;;;;;;;;;;4971917;28;20046;-85
2024/01/25 13:05:20;;;;;;;74.65;7.07;;;;;;;;;;4989431;28;20041;-82
2024/01/25 13:07:45;;;;;;;108.28;9.43;;;;;;;;;;4987937;28;20055;-83
2024/01/25 13:10:11;;;;;;;66.63;8.27;;;;;;;;;;4990558;28;20108;-84
2024/01/25 13:12:38;;;;;;;84.72;7.38;;;;;;;;;;5000581;28;20046;-83
2024/01/25 13:15:05;;;;;;;12.95;2.00;;;;;;;;;;4996731;28;20642;-82
2024/01/25 13:17:40;;;;;;;96.45;9.88;;;;;;;;;;4985896;28;20038;-85
2024/01/25 13:20:08;;;;;;;34.83;4.22;;;;;;;;;;4974124;28;20994;-82
2024/01/25 13:22:33;;;;;;;;;;;;;;;;;;4973882;28;20497;-82
2024/01/25 13:25:00;;;;;;;75.50;6.80;;;;;;;;;;4967693;28;19917;-82
2024/01/25 13:27:26;;;;;;;14.90;2.28;;;;;;;;;;4984961;28;20485;-82
2024/01/25 13:29:52;;;;;;;20.85;3.13;;;;;;;;;;4988617;28;20052;-81
2024/01/25 13:32:17;;;;;;;11.35;2.00;;;;;;;;;;4985989;28;20038;-84
2024/01/25 13:34:42;;;;;;;30.52;3.65;;;;;;;;;;4989745;28;20060;-80
2024/01/25 13:37:08;;;;;;;20.92;3.33;;;;;;;;;;4965912;28;20718;-79
2024/01/25 13:39:33;;;;;;;32.72;3.75;;;;;;;;;;4988195;28;20034;-81
2024/01/25 13:41:59;;;;;;;11.52;1.65;;;;;;;;;;4989027;28;20041;-82
2024/01/25 13:44:24;;;;;;;21.70;3.00;;;;;;;;;;4973423;28;20381;-83
2024/01/25 13:46:50;;;;;;;20.77;3.28;;;;;;;;;;4987119;28;20034;-83
2024/01/25 13:49:15;;;;;;;44.28;7.47;;;;;;;;;;4970882;28;20035;-82
2024/01/25 13:51:41;;;;;;;15.85;2.67;;;;;;;;;;4971736;28;20061;-82
2024/01/25 13:54:06;;;;;;;23.55;3.55;;;;;;;;;;4987314;28;20160;-82
2024/01/25 13:56:31;;;;;;;18.40;2.47;;;;;;;;;;4967994;28;20034;-81
2024/01/25 13:58:57;;;;;;;35.42;5.32;;;;;;;;;;4970014;28;20037;-81
2024/01/25 14:01:22;;;;;;;24.13;3.97;;;;;;;;;;4985499;28;20394;-81
2024/01/25 14:03:47;;;;;;;18.65;3.78;;;;;;;;;;4981968;28;20125;-80
2024/01/25 14:06:13;;;;;;;13.13;3.10;;;;;;;;;;4988300;28;20506;-81
2024/01/25 14:08:38;;;;;;;17.40;1.90;;;;;;;;;;4986259;28;20042;-81
2024/01/25 14:11:05;;;;;;;12.30;2.25;;;;;;;;;;5004873;28;20088;-82
2024/01/25 14:13:51;;;;;;;14.68;2.20;;;;;;;;;;5006126;28;20053;-82
2024/01/25 14:16:17;;;;;;;12.52;2.17;;;;;;;;;;4947807;28;20585;-80
2024/01/25 14:18:43;;;;;;;16.20;2.53;;;;;;;;;;4951556;28;20079;-80
2024/01/25 14:21:08;;;;;;;11.63;2.25;;;;;;;;;;4946944;28;20154;-80
2024/01/25 14:23:34;;;;;;;16.02;2.40;;;;;;;;;;4949592;28;20118;-81